Time;durP1;ratioP1;P1;durP2;ratioP2;P2;SDS_P1;SDS_P2;PMS_P1;PMS_P2;Temp;Humidity;BMP_temperature;BMP_pressure;BME280_temperature;BME280_humidity;BME280_pressure;Samples;Min_cycle;Max_cycle;Signal;HPM_P1;HPM_P2
2021/11/22 00:02:04;;;;;;;;;;;13.20;99.90;;;;;;5057891;28;782;-51
2021/11/22 00:04:30;;;;;;;;;;;13.20;99.90;;;;;;5034548;28;923;-51
2021/11/22 00:06:58;;;;;;;;;;;13.20;99.90;;;;;;5051886;28;946;-51
2021/11/22 00:09:25;;;;;;;;;;;13.20;99.90;;;;;;5051956;28;1914;-50
2021/11/22 00:11:53;;;;;;;;;;;13.20;99.90;;;;;;5057543;28;861;-50
2021/11/22 00:14:21;;;;;;;;;;;13.20;99.90;;;;;;5072944;28;826;-51
2021/11/22 00:16:47;;;;;;;;;;;13.20;99.90;;;;;;5063884;28;1077;-51
2021/11/22 00:19:14;;;;;;;;;;;13.20;99.90;;;;;;5057717;28;795;-51
2021/11/22 00:21:40;;;;;;;;;;;13.20;99.90;;;;;;5057428;28;854;-51
2021/11/22 00:24:06;;;;;;;;;;;13.20;99.90;;;;;;5057346;28;922;-50
2021/11/22 00:26:32;;;;;;;;;;;13.20;99.90;;;;;;5057040;28;866;-50
2021/11/22 00:28:59;;;;;;;;;;;13.20;99.90;;;;;;5057380;28;1910;-51
2021/11/22 00:31:25;;;;;;;;;;;13.20;99.90;;;;;;5057289;28;790;-51
2021/11/22 00:33:53;;;;;;;;;;;13.20;99.90;;;;;;5036437;28;961;-51
2021/11/22 00:36:19;;;;;;;;;;;13.20;99.90;;;;;;5054957;28;919;-51
2021/11/22 00:38:45;;;;;;;;;;;13.20;99.90;;;;;;5054941;28;933;-51
2021/11/22 00:41:11;;;;;;;;;;;13.20;99.90;;;;;;5067310;28;1309;-50
2021/11/22 00:43:38;;;;;;;;;;;13.20;99.90;;;;;;5073878;28;1714;-50
2021/11/22 00:46:07;;;;;;;;;;;13.20;99.90;;;;;;5075610;28;863;-51
2021/11/22 00:48:35;;;;;;;;;;;13.20;99.90;;;;;;5074875;28;1918;-51
2021/11/22 00:51:04;;;;;;;;;;;13.20;99.90;;;;;;5054266;28;830;-51
2021/11/22 00:53:30;;;;;;;;;;;13.20;99.90;;;;;;5054198;28;742;-51
2021/11/22 00:55:57;;;;;;;;;;;13.10;99.90;;;;;;5054088;28;799;-50
2021/11/22 00:58:23;;;;;;;;;;;13.10;99.90;;;;;;5035592;28;969;-50
2021/11/22 01:00:49;;;;;;;;;;;13.10;99.90;;;;;;5074635;28;1176;-50
2021/11/22 01:03:16;;;;;;;;;;;13.10;99.90;;;;;;5075217;28;771;-50
2021/11/22 01:05:42;;;;;;;;;;;13.10;99.90;;;;;;5074710;28;909;-51
2021/11/22 01:08:09;;;;;;;;;;;13.10;99.90;;;;;;5075058;28;1914;-51
2021/11/22 01:10:38;;;;;;;;;;;13.10;99.90;;;;;;5074966;28;853;-50
2021/11/22 01:13:06;;;;;;;;;;;13.00;99.90;;;;;;5073743;28;846;-50
2021/11/22 01:15:34;;;;;;;;;;;13.00;99.90;;;;;;5073242;28;797;-51
2021/11/22 01:18:00;;;;;;;;;;;13.00;99.90;;;;;;5056806;28;1006;-51
2021/11/22 01:20:28;;;;;;;;;;;13.00;99.90;;;;;;5074970;28;892;-50
2021/11/22 01:22:56;;;;;;;;;;;13.00;99.90;;;;;;5007595;28;1180;-51
2021/11/22 01:25:22;;;;;;;;;;;13.00;99.90;;;;;;5056089;28;909;-51
2021/11/22 01:27:48;;;;;;;;;;;13.00;99.90;;;;;;5056127;28;1910;-51
2021/11/22 01:30:15;;;;;;;;;;;13.00;99.90;;;;;;5055972;28;971;-51
2021/11/22 01:32:41;;;;;;;;;;;13.00;99.90;;;;;;5055664;28;900;-50
2021/11/22 01:35:09;;;;;;;;;;;13.00;99.90;;;;;;5056499;28;782;-51
2021/11/22 01:37:36;;;;;;;;;;;13.00;99.90;;;;;;5059558;28;956;-51
2021/11/22 01:40:03;;;;;;;;;;;13.00;99.90;;;;;;5009631;28;1074;-51
2021/11/22 01:42:29;;;;;;;;;;;13.00;99.90;;;;;;5043088;28;754;-50
2021/11/22 01:44:55;;;;;;;;;;;13.00;99.90;;;;;;5078664;28;1065;-51
2021/11/22 01:47:21;;;;;;;;;;;13.00;99.90;;;;;;5075276;28;892;-51
2021/11/22 01:49:47;;;;;;;;;;;13.00;99.90;;;;;;5078524;28;1953;-50
2021/11/22 01:52:13;;;;;;;;;;;12.90;99.90;;;;;;5073336;28;1114;-50
2021/11/22 01:54:40;;;;;;;;;;;12.90;99.90;;;;;;5078145;28;780;-50
2021/11/22 01:57:08;;;;;;;;;;;12.90;99.90;;;;;;5078474;28;935;-50
2021/11/22 01:59:35;;;;;;;;;;;12.90;99.90;;;;;;5060291;28;956;-50
2021/11/22 02:02:02;;;;;;;;;;;12.90;99.90;;;;;;5078608;28;789;-50
2021/11/22 02:04:28;;;;;;;;;;;12.90;99.90;;;;;;5078708;28;902;-49
2021/11/22 02:06:54;;;;;;;;;;;12.90;99.90;;;;;;5078948;28;984;-50
2021/11/22 02:09:20;;;;;;;;;;;12.90;99.90;;;;;;5078269;28;1902;-50
2021/11/22 02:11:46;;;;;;;;;;;12.90;99.90;;;;;;5078297;28;796;-52
2021/11/22 02:14:14;;;;;;;;;;;12.90;99.90;;;;;;5073109;28;940;-49
2021/11/22 02:16:39;;;;;;;;;;;12.90;99.90;;;;;;5067881;28;1028;-50
2021/11/22 02:19:06;;;;;;;;;;;12.90;99.90;;;;;;5041946;28;971;-50
2021/11/22 02:21:32;;;;;;;;;;;12.90;99.90;;;;;;5052819;28;871;-50
2021/11/22 02:23:58;;;;;;;;;;;12.90;99.90;;;;;;5021577;28;995;-50
2021/11/22 02:26:24;;;;;;;;;;;12.90;99.90;;;;;;5038120;28;853;-50
2021/11/22 02:28:51;;;;;;;;;;;12.90;99.90;;;;;;5038056;28;1875;-51
2021/11/22 02:31:16;;;;;;;;;;;12.90;99.90;;;;;;5037796;28;1142;-50
2021/11/22 02:33:43;;;;;;;;;;;12.90;99.90;;;;;;5035169;28;1333;-51
2021/11/22 02:36:11;;;;;;;;;;;12.90;99.90;;;;;;5037885;28;853;-50
2021/11/22 02:38:39;;;;;;;;;;;12.90;99.90;;;;;;5037870;28;966;-50
2021/11/22 02:41:06;;;;;;;;;;;12.90;99.90;;;;;;5012551;28;1025;-51
2021/11/22 02:43:34;;;;;;;;;;;12.90;99.90;;;;;;5035882;28;1050;-50
2021/11/22 02:46:00;;;;;;;;;;;12.80;99.90;;;;;;5050826;28;814;-51
2021/11/22 02:48:26;;;;;;;;;;;12.80;99.90;;;;;;5036407;28;1963;-51
2021/11/22 02:50:52;;;;;;;;;;;12.80;99.90;;;;;;5038071;28;929;-51
2021/11/22 02:53:18;;;;;;;;;;;12.80;99.90;;;;;;5041339;28;1455;-50
2021/11/22 02:55:46;;;;;;;;;;;12.80;99.90;;;;;;5058763;28;865;-50
2021/11/22 02:58:13;;;;;;;;;;;12.80;99.90;;;;;;5059074;28;801;-50
2021/11/22 03:00:41;;;;;;;;;;;12.80;99.90;;;;;;5058375;28;1371;-50
2021/11/22 03:03:08;;;;;;;;;;;12.80;99.90;;;;;;5063243;28;825;-50
2021/11/22 03:05:34;;;;;;;;;;;12.80;99.90;;;;;;5055421;28;785;-51
2021/11/22 03:08:00;;;;;;;;;;;12.80;99.90;;;;;;5042738;28;1967;-51
2021/11/22 03:10:28;;;;;;;;;;;12.70;99.90;;;;;;5077379;28;851;-50
2021/11/22 03:12:54;;;;;;;;;;;12.70;99.90;;;;;;5074463;28;896;-51
2021/11/22 03:15:21;;;;;;;;;;;12.70;99.90;;;;;;5076856;28;849;-51
2021/11/22 03:17:48;;;;;;;;;;;12.70;99.90;;;;;;5058601;28;954;-51
2021/11/22 03:20:16;;;;;;;;;;;12.70;99.90;;;;;;5058736;28;904;-50
2021/11/22 03:22:44;;;;;;;;;;;12.70;99.90;;;;;;5058606;28;821;-50
2021/11/22 03:25:13;;;;;;;;;;;12.70;99.90;;;;;;5058354;28;938;-51
2021/11/22 03:27:41;;;;;;;;;;;12.70;99.90;;;;;;5057109;28;1426;-50
2021/11/22 03:30:08;;;;;;;;;;;12.60;99.90;;;;;;5064694;28;2024;-51
2021/11/22 03:32:34;;;;;;;;;;;12.60;99.90;;;;;;5057620;28;956;-51
2021/11/22 03:35:00;;;;;;;;;;;12.60;99.90;;;;;;5058656;28;880;-51
2021/11/22 03:37:27;;;;;;;;;;;12.60;99.90;;;;;;5058247;28;952;-50
2021/11/22 03:39:54;;;;;;;;;;;12.60;99.90;;;;;;5058634;28;865;-52
2021/11/22 03:42:22;;;;;;;;;;;12.60;99.90;;;;;;5059039;28;805;-51
2021/11/22 03:44:49;;;;;;;;;;;12.60;99.90;;;;;;5074729;28;1026;-51
2021/11/22 03:47:15;;;;;;;;;;;12.60;99.90;;;;;;5062115;28;757;-51
2021/11/22 03:49:42;;;;;;;;;;;12.60;99.90;;;;;;5058528;28;1914;-51
2021/11/22 03:52:11;;;;;;;;;;;12.60;99.90;;;;;;5058442;28;884;-51
2021/11/22 03:54:37;;;;;;;;;;;12.60;99.90;;;;;;5058543;28;896;-51
2021/11/22 03:57:04;;;;;;;;;;;12.60;99.90;;;;;;5025917;28;1141;-50
2021/11/22 03:59:30;;;;;;;;;;;12.60;99.90;;;;;;5067985;28;768;-52
2021/11/22 04:01:56;;;;;;;;;;;12.60;99.90;;;;;;5058101;28;818;-51
2021/11/22 04:04:22;;;;;;;;;;;12.60;99.90;;;;;;5056992;28;945;-51
2021/11/22 04:06:48;;;;;;;;;;;12.50;99.90;;;;;;5040145;28;1228;-51
2021/11/22 04:09:16;;;;;;;;;;;12.50;99.90;;;;;;5057705;28;1910;-51
2021/11/22 04:11:43;;;;;;;;;;;12.50;99.90;;;;;;5057810;28;746;-51
2021/11/22 04:14:09;;;;;;;;;;;12.50;99.90;;;;;;5057495;28;880;-51
2021/11/22 04:16:35;;;;;;;;;;;12.50;99.90;;;;;;5039297;28;1110;-51
2021/11/22 04:19:01;;;;;;;;;;;12.50;99.90;;;;;;5056982;28;872;-50
2021/11/22 04:21:27;;;;;;;;;;;12.50;99.90;;;;;;5056422;28;1060;-50
2021/11/22 04:23:54;;;;;;;;;;;12.50;99.90;;;;;;5057380;28;774;-51
2021/11/22 04:26:21;;;;;;;;;;;12.50;99.90;;;;;;5055115;28;1289;-50
2021/11/22 04:28:48;;;;;;;;;;;12.50;99.90;;;;;;5075710;28;1971;-52
2021/11/22 04:31:15;;;;;;;;;;;12.40;99.90;;;;;;5075891;28;842;-50
2021/11/22 04:33:41;;;;;;;;;;;12.40;99.90;;;;;;5075737;28;793;-50
2021/11/22 04:36:10;;;;;;;;;;;12.40;99.90;;;;;;5075522;28;825;-50
2021/11/22 04:38:36;;;;;;;;;;;12.40;99.90;;;;;;5040852;28;1146;-50
2021/11/22 04:41:02;;;;;;;;;;;12.40;99.90;;;;;;5074975;28;857;-50
2021/11/22 04:43:28;;;;;;;;;;;12.40;99.90;;;;;;5072528;28;1256;-51
2021/11/22 04:45:54;;;;;;;;;;;12.40;99.90;;;;;;5070751;28;809;-51
2021/11/22 04:48:22;;;;;;;;;;;12.40;99.90;;;;;;5057186;28;1918;-50
2021/11/22 04:50:49;;;;;;;;;;;12.40;99.90;;;;;;5057143;28;898;-50
2021/11/22 04:53:15;;;;;;;;;;;12.30;99.90;;;;;;5057248;28;935;-50
2021/11/22 04:55:41;;;;;;;;;;;12.30;99.90;;;;;;5056905;28;781;-51
2021/11/22 04:58:08;;;;;;;;;;;12.30;99.90;;;;;;5057079;28;852;-50
2021/11/22 05:00:35;;;;;;;;;;;12.30;99.90;;;;;;5054656;28;832;-51
2021/11/22 05:03:01;;;;;;;;;;;12.30;99.90;;;;;;5055178;28;800;-50
2021/11/22 05:05:27;;;;;;;;;;;12.30;99.90;;;;;;5075227;28;868;-50
2021/11/22 05:07:53;;;;;;;;;;;12.30;99.90;;;;;;5057489;28;1066;-50
2021/11/22 05:10:22;;;;;;;;;;;12.30;99.90;;;;;;5074981;28;1894;-50
2021/11/22 05:12:50;;;;;;;;;;;12.30;99.90;;;;;;5057759;28;806;-50
2021/11/22 05:15:17;;;;;;;;;;;12.30;99.90;;;;;;5070299;28;789;-50
2021/11/22 05:17:43;;;;;;;;;;;12.30;99.90;;;;;;5056113;28;1035;-50
2021/11/22 05:20:10;;;;;;;;;;;12.30;99.90;;;;;;5040326;28;1014;-50
2021/11/22 05:22:36;;;;;;;;;;;12.30;99.90;;;;;;5074943;28;853;-50
2021/11/22 05:25:03;;;;;;;;;;;12.30;99.90;;;;;;5074786;28;926;-50
2021/11/22 05:27:30;;;;;;;;;;;12.30;99.90;;;;;;5057200;28;1059;-50
2021/11/22 05:29:57;;;;;;;;;;;12.30;99.90;;;;;;5056434;28;1906;-49
2021/11/22 05:32:24;;;;;;;;;;;12.30;99.90;;;;;;5075042;28;850;-50
2021/11/22 05:34:51;;;;;;;;;;;12.40;99.90;;;;;;5074699;28;801;-50
2021/11/22 05:37:19;;;;;;;;;;;12.40;99.90;;;;;;5056577;28;941;-50
2021/11/22 05:39:46;;;;;;;;;;;12.40;99.90;;;;;;5074765;28;770;-49
2021/11/22 05:42:13;;;;;;;;;;;12.40;99.90;;;;;;5074382;28;928;-54
2021/11/22 05:44:39;;;;;;;;;;;12.40;99.90;;;;;;5074052;28;1014;-52
2021/11/22 05:47:07;;;;;;;;;;;12.40;99.90;;;;;;5061190;28;827;-50
2021/11/22 05:49:35;;;;;;;;;;;12.40;99.90;;;;;;5056183;28;1926;-53
2021/11/22 05:52:03;;;;;;;;;;;12.40;99.90;;;;;;5055863;28;815;-50
2021/11/22 05:54:32;;;;;;;;;;;12.50;99.90;;;;;;5056070;28;767;-50
2021/11/22 05:56:58;;;;;;;;;;;12.50;99.90;;;;;;5056311;28;821;-50
2021/11/22 05:59:26;;;;;;;;;;;12.60;99.90;;;;;;5056534;28;780;-50
2021/11/22 06:01:53;;;;;;;;;;;12.60;99.90;;;;;;5055796;28;1055;-53
2021/11/22 06:04:19;;;;;;;;;;;12.80;99.90;;;;;;5055684;28;889;-54
2021/11/22 06:06:45;;;;;;;;;;;12.90;99.90;;;;;;5056395;28;930;-54
2021/11/22 06:09:11;;;;;;;;;;;13.10;99.90;;;;;;5021598;28;1907;-53
2021/11/22 06:11:37;;;;;;;;;;;13.10;99.90;;;;;;5038761;28;1003;-50
2021/11/22 06:14:04;;;;;;;;;;;13.40;99.90;;;;;;5068767;28;773;-54
2021/11/22 06:16:31;;;;;;;;;;;13.50;99.90;;;;;;5053954;28;1171;-54
2021/11/22 06:18:58;;;;;;;;;;;13.70;99.90;;;;;;5053541;28;1293;-50
2021/11/22 06:21:25;;;;;;;;;;;13.90;99.90;;;;;;5074293;28;853;-50
2021/11/22 06:23:53;;;;;;;;;;;14.10;99.90;;;;;;5077959;28;821;-50
2021/11/22 06:26:21;;;;;;;;;;;14.30;99.90;;;;;;5077852;28;881;-50
2021/11/22 06:28:47;;;;;;;;;;;14.50;99.90;;;;;;5077949;28;1967;-50
2021/11/22 06:31:13;;;;;;;;;;;14.60;99.90;;;;;;5059757;28;970;-53
2021/11/22 06:33:39;;;;;;;;;;;14.70;99.90;;;;;;5077835;28;746;-54
2021/11/22 06:36:05;;;;;;;;;;;14.80;99.90;;;;;;5077838;28;1098;-53
2021/11/22 06:38:33;;;;;;;;;;;15.00;99.90;;;;;;5077963;28;741;-53
2021/11/22 06:41:01;;;;;;;;;;;15.10;99.90;;;;;;5078070;28;1012;-53
2021/11/22 06:43:27;;;;;;;;;;;15.20;99.90;;;;;;5057046;28;1133;-53
2021/11/22 06:45:52;;;;;;;;;;;15.30;99.90;;;;;;5077672;28;766;-53
2021/11/22 06:48:18;;;;;;;;;;;15.30;99.90;;;;;;5077543;28;819;-51
2021/11/22 06:50:44;;;;;;;;;;;15.40;99.90;;;;;;5077622;28;900;-51
2021/11/22 06:53:10;;;;;;;;;;;15.40;99.90;;;;;;5077813;28;809;-50
2021/11/22 06:55:38;;;;;;;;;;;15.30;99.90;;;;;;5077742;28;1020;-51
2021/11/22 06:58:05;;;;;;;;;;;15.30;99.90;;;;;;5077533;28;834;-53
2021/11/22 07:00:31;;;;;;;;;;;15.20;99.90;;;;;;5077300;28;856;-53
2021/11/22 07:02:57;;;;;;;;;;;15.20;99.90;;;;;;5077483;28;755;-53
2021/11/22 07:05:24;;;;;;;;;;;15.10;99.90;;;;;;5077562;28;776;-53
2021/11/22 07:07:51;;;;;;;;;;;15.10;99.90;;;;;;5076967;28;1140;-51
2021/11/22 07:10:17;;;;;;;;;;;15.00;99.90;;;;;;5077458;28;1965;-51
2021/11/22 07:12:43;;;;;;;;;;;14.90;99.90;;;;;;5076813;28;875;-55
2021/11/22 07:15:11;;;;;;;;;;;14.90;99.90;;;;;;5077196;28;1042;-55
2021/11/22 07:17:38;;;;;;;;;;;14.80;99.90;;;;;;5059945;28;870;-51
2021/11/22 07:20:04;;;;;;;;;;;14.80;99.90;;;;;;5058758;28;1001;-51
2021/11/22 07:22:30;;;;;;;;;;;14.70;99.90;;;;;;5058997;28;779;-53
2021/11/22 07:24:56;;;;;;;;;;;14.60;99.90;;;;;;5058643;28;722;-53
2021/11/22 07:27:26;;;;;;;;;;;14.60;99.90;;;;;;5058734;28;829;-51
2021/11/22 07:29:56;;;;;;;;;;;14.50;99.90;;;;;;5058173;28;1902;-53
2021/11/22 07:32:22;;;;;;;;;;;14.50;99.90;;;;;;5057859;28;874;-54
2021/11/22 07:34:48;;;;;;;;;;;14.40;99.90;;;;;;5057356;28;896;-53
2021/11/22 07:37:14;;;;;;;;;;;14.30;99.90;;;;;;5057528;28;1366;-53
2021/11/22 07:39:41;;;;;;;;;;;14.30;99.90;;;;;;5058510;28;951;-52
2021/11/22 07:42:09;;;;;;;;;;;14.20;99.90;;;;;;5057936;28;993;-50
2021/11/22 07:44:35;;;;;;;;;;;14.20;99.90;;;;;;5049046;28;1208;-50
2021/11/22 07:47:03;;;;;;;;;;;14.10;99.90;;;;;;5057666;28;789;-50
2021/11/22 07:49:29;;;;;;;;;;;14.10;99.90;;;;;;5054979;28;1910;-50
2021/11/22 07:51:55;;;;;;;;;;;14.00;99.90;;;;;;5057171;28;950;-50
2021/11/22 07:54:21;;;;;;;;;;;14.00;99.90;;;;;;5057006;28;916;-50
2021/11/22 07:56:47;;;;;;;;;;;14.00;99.90;;;;;;5058250;28;834;-52
2021/11/22 07:59:14;;;;;;;;;;;13.90;99.90;;;;;;5058119;28;1342;-53
2021/11/22 08:01:40;;;;;;;;;;;13.90;99.90;;;;;;5057550;28;1131;-53
2021/11/22 08:04:13;;;;;;;;;;;13.90;99.90;;;;;;5071419;28;846;-52
2021/11/22 08:06:49;;;;;;;;;;;13.90;99.90;;;;;;5076183;28;762;-50
2021/11/22 08:09:24;;;;;;;;;;;13.80;99.90;;;;;;5076372;28;1958;-51
2021/11/22 08:12:33;;;;;;;;;;;13.80;99.90;;;;;;5056727;28;826;-53
2021/11/22 08:14:41;;;;;;;;;;;13.80;99.90;;;;;;5049485;28;1416;-50
2021/11/22 08:17:10;;;;;;;;;;;13.80;99.90;;;;;;5035214;28;1030;-52
2021/11/22 08:19:38;;;;;;;;;;;13.80;99.90;;;;;;5057489;28;1039;-50
2021/11/22 08:22:06;;;;;;;;;;;13.80;99.90;;;;;;5057568;28;754;-53
2021/11/22 08:24:32;;;;;;;;;;;13.80;99.90;;;;;;5062499;28;1274;-50
2021/11/22 08:26:58;;;;;;;;;;;13.80;99.90;;;;;;5075751;28;801;-50
2021/11/22 08:29:24;;;;;;;;;;;13.90;99.90;;;;;;5075927;28;1902;-50
2021/11/22 08:31:50;;;;;;;;;;;13.90;99.90;;;;;;5075694;28;1139;-53
2021/11/22 08:34:16;;;;;;;;;;;13.90;99.90;;;;;;5075490;28;797;-50
2021/11/22 08:36:42;;;;;;;;;;;13.90;99.90;;;;;;5075610;28;860;-50
2021/11/22 08:39:10;;;;;;;;;;;14.00;99.90;;;;;;5075658;28;935;-54
2021/11/22 08:41:37;;;;;;;;;;;14.00;99.90;;;;;;5075750;28;804;-54
2021/11/22 08:44:03;;;;;;;;;;;14.00;99.90;;;;;;5075111;28;1175;-50
2021/11/22 08:46:29;;;;;;;;;;;14.00;99.90;;;;;;5065791;28;773;-52
2021/11/22 08:48:55;;;;;;;;;;;14.00;99.90;;;;;;5056780;28;1919;-50
2021/11/22 08:51:21;;;;;;;;;;;14.10;99.90;;;;;;5057183;28;783;-51
2021/11/22 08:53:47;;;;;;;;;;;14.00;99.90;;;;;;5056991;28;796;-50
2021/11/22 08:56:14;;;;;;;;;;;14.00;99.90;;;;;;5057056;28;726;-50
2021/11/22 08:58:40;;;;;;;;;;;14.00;99.90;;;;;;5056128;28;886;-50
2021/11/22 09:01:09;;;;;;;;;;;14.00;99.90;;;;;;5056076;28;881;-51
2021/11/22 09:03:35;;;;;;;;;;;14.00;99.90;;;;;;5022144;28;917;-52
2021/11/22 09:06:01;;;;;;;;;;;14.00;99.90;;;;;;5000861;28;1444;-54
2021/11/22 09:08:27;;;;;;;;;;;14.00;99.90;;;;;;5075424;28;793;-53
2021/11/22 09:10:53;;;;;;;;;;;14.00;99.90;;;;;;5075211;28;1969;-52
2021/11/22 09:13:19;;;;;;;;;;;13.90;99.90;;;;;;5065653;28;1390;-52
2021/11/22 09:15:45;;;;;;;;;;;13.90;99.90;;;;;;5059553;28;908;-50
2021/11/22 09:18:12;;;;;;;;;;;13.90;99.90;;;;;;5074864;28;854;-50
2021/11/22 09:20:41;;;;;;;;;;;13.90;99.90;;;;;;5074838;28;837;-50
2021/11/22 09:23:07;;;;;;;;;;;13.90;99.90;;;;;;5040412;28;1623;-50
2021/11/22 09:25:35;;;;;;;;;;;13.90;99.90;;;;;;5075050;28;853;-52
2021/11/22 09:28:01;;;;;;;;;;;13.80;99.90;;;;;;5057010;28;898;-54
2021/11/22 09:30:28;;;;;;;;;;;13.80;99.90;;;;;;5074739;28;1906;-54
2021/11/22 09:32:54;;;;;;;;;;;13.80;99.90;;;;;;5074879;28;815;-50
2021/11/22 09:35:21;;;;;;;;;;;13.80;99.90;;;;;;5074587;28;927;-50
2021/11/22 09:37:48;;;;;;;;;;;13.80;99.90;;;;;;5074347;28;908;-50
2021/11/22 09:40:15;;;;;;;;;;;13.80;99.90;;;;;;5057162;28;904;-54
2021/11/22 09:42:42;;;;;;;;;;;13.70;99.90;;;;;;5074826;28;879;-50
2021/11/22 09:45:11;;;;;;;;;;;13.70;99.90;;;;;;5074633;28;1100;-54
2021/11/22 09:47:38;;;;;;;;;;;13.70;99.90;;;;;;5056804;28;1008;-50
2021/11/22 09:50:06;;;;;;;;;;;13.70;99.90;;;;;;5056218;28;1910;-53
2021/11/22 09:52:33;;;;;;;;;;;13.60;99.90;;;;;;5056372;28;770;-50
2021/11/22 09:54:59;;;;;;;;;;;13.70;99.90;;;;;;5056604;28;798;-51
2021/11/22 09:57:25;;;;;;;;;;;13.70;99.90;;;;;;5057651;28;849;-53
2021/11/22 09:59:51;;;;;;;;;;;13.60;99.90;;;;;;5060794;28;838;-53
2021/11/22 10:02:19;;;;;;;;;;;13.60;99.90;;;;;;5060104;28;821;-51
2021/11/22 10:04:46;;;;;;;;;;;13.60;99.90;;;;;;5060004;28;978;-51
2021/11/22 10:07:18;;;;;;;;;;;13.70;99.90;;;;;;5060358;28;814;-51
2021/11/22 10:09:45;;;;;;;;;;;13.70;99.90;;;;;;5059491;28;1969;-51
2021/11/22 10:12:31;;;;;;;;;;;13.70;99.90;;;;;;5060400;28;1315;-51
2021/11/22 10:14:59;;;;;;;;;;;13.70;99.90;;;;;;5058411;28;843;-53
2021/11/22 10:17:25;;;;;;;;;;;13.70;99.90;;;;;;5059726;28;823;-53
2021/11/22 10:20:10;;;;;;;;;;;13.70;99.90;;;;;;5044972;28;1364;-51
2021/11/22 10:22:51;;;;;;;;;;;13.80;99.90;;;;;;5077733;28;823;-51
2021/11/22 10:25:36;;;;;;;;;;;13.80;99.90;;;;;;5059380;28;900;-51
2021/11/22 10:28:02;;;;;;;;;;;13.90;99.90;;;;;;5059104;28;959;-53
2021/11/22 10:30:29;;;;;;;;;;;13.90;99.90;;;;;;5059883;28;1887;-53
2021/11/22 10:32:56;;;;;;;;;;;13.90;99.90;;;;;;5059720;28;875;-51
2021/11/22 10:35:23;;;;;;;;;;;13.90;99.90;;;;;;5059015;28;906;-51
2021/11/22 10:37:53;;;;;;;;;;;13.90;99.90;;;;;;5059605;28;819;-53
2021/11/22 10:40:20;;;;;;;;;;;13.90;99.90;;;;;;5059126;28;925;-51
2021/11/22 10:42:48;;;;;;;;;;;13.90;99.90;;;;;;5062845;28;803;-51
2021/11/22 10:45:21;;;;;;;;;;;13.90;99.90;;;;;;5077198;28;1073;-51
2021/11/22 10:47:55;;;;;;;;;;;13.90;99.90;;;;;;5039620;28;1026;-53
2021/11/22 10:50:25;;;;;;;;;;;13.90;99.90;;;;;;5059425;28;1910;-53
2021/11/22 10:52:52;;;;;;;;;;;13.90;99.90;;;;;;5058660;28;1132;-53
2021/11/22 10:55:20;;;;;;;;;;;13.90;99.90;;;;;;5059612;28;829;-53
2021/11/22 10:57:47;;;;;;;;;;;13.90;99.90;;;;;;5058874;28;1050;-51
2021/11/22 11:00:34;;;;;;;;;;;13.90;99.90;;;;;;5041764;28;932;-53
2021/11/22 11:03:05;;;;;;;;;;;14.00;99.90;;;;;;5059276;28;756;-50
2021/11/22 11:05:35;;;;;;;;;;;14.00;99.90;;;;;;5053283;28;888;-50
2021/11/22 11:08:02;;;;;;;;;;;14.00;99.90;;;;;;5041187;28;904;-54
2021/11/22 11:10:28;;;;;;;;;;;14.00;99.90;;;;;;5057587;28;1979;-50
2021/11/22 11:12:55;;;;;;;;;;;14.00;99.90;;;;;;5041543;28;944;-51
2021/11/22 11:15:23;;;;;;;;;;;14.00;99.90;;;;;;5077137;28;868;-50
2021/11/22 11:17:50;;;;;;;;;;;14.00;99.90;;;;;;5058426;28;940;-50
2021/11/22 11:20:20;;;;;;;;;;;14.00;99.90;;;;;;5058319;28;841;-50
2021/11/22 11:22:46;;;;;;;;;;;14.00;99.90;;;;;;5058918;28;825;-50
2021/11/22 11:25:14;;;;;;;;;;;14.00;99.90;;;;;;5058088;28;993;-52
2021/11/22 11:27:41;;;;;;;;;;;14.00;99.90;;;;;;5017004;28;994;-53
2021/11/22 11:30:09;;;;;;;;;;;14.00;99.90;;;;;;5016588;28;1894;-50
2021/11/22 11:32:35;;;;;;;;;;;14.00;99.90;;;;;;5017133;28;1171;-50
2021/11/22 11:35:02;;;;;;;;;;;14.00;99.90;;;;;;5016797;28;790;-50
2021/11/22 11:37:31;;;;;;;;;;;13.90;99.90;;;;;;4995211;28;1052;-50
2021/11/22 11:40:03;;;;;;;;;;;13.90;99.90;;;;;;5016945;28;913;-50
2021/11/22 11:42:54;;;;;;;;;;;13.90;99.90;;;;;;4999976;28;994;-50
2021/11/22 11:45:31;;;;;;;;;;;13.80;99.90;;;;;;5016909;28;830;-50
2021/11/22 11:47:57;;;;;;;;;;;13.90;99.90;;;;;;5016788;28;1477;-50
2021/11/22 11:50:31;;;;;;;;;;;13.80;99.90;;;;;;5016554;28;1902;-52
2021/11/22 11:53:03;;;;;;;;;;;13.90;99.90;;;;;;5016814;28;1056;-54
2021/11/22 11:55:29;;;;;;;;;;;13.90;99.90;;;;;;5016644;28;803;-50
2021/11/22 11:58:15;;;;;;;;;;;13.90;99.90;;;;;;5024424;28;1019;-52
2021/11/22 12:00:59;;;;;;;;;;;13.80;99.90;;;;;;5058073;28;761;-54
2021/11/22 12:03:30;;;;;;;;;;;13.80;99.90;;;;;;5058354;28;801;-50
2021/11/22 12:05:58;;;;;;;;;;;13.80;99.90;;;;;;5057256;28;1136;-53
2021/11/22 12:08:42;;;;;;;;;;;13.90;99.90;;;;;;5057818;28;801;-50
2021/11/22 12:11:08;;;;;;;;;;;13.90;99.90;;;;;;5057827;28;1955;-53
2021/11/22 12:13:46;;;;;;;;;;;13.90;99.90;;;;;;5065688;28;947;-50
2021/11/22 12:16:32;;;;;;;;;;;13.80;99.90;;;;;;5069015;28;1039;-52
2021/11/22 12:19:18;;;;;;;;;;;13.90;99.90;;;;;;5057517;28;1044;-49
2021/11/22 12:21:44;;;;;;;;;;;13.90;99.90;;;;;;5022996;28;1562;-50
2021/11/22 12:24:15;;;;;;;;;;;13.90;99.90;;;;;;5057587;28;834;-50
2021/11/22 12:26:41;;;;;;;;;;;14.00;99.90;;;;;;5041389;28;1062;-50
2021/11/22 12:29:07;;;;;;;;;;;14.00;99.90;;;;;;5076097;28;890;-50
2021/11/22 12:31:41;;;;;;;;;;;14.00;99.90;;;;;;5075491;28;1898;-50
2021/11/22 12:34:09;;;;;;;;;;;14.00;99.90;;;;;;5075219;28;948;-50
2021/11/22 12:36:40;;;;;;;;;;;14.00;99.90;;;;;;5074893;28;925;-50
2021/11/22 12:39:12;;;;;;;;;;;14.00;99.90;;;;;;5076302;28;823;-51
2021/11/22 12:41:39;;;;;;;;;;;14.10;99.90;;;;;;5075897;28;812;-50
2021/11/22 12:44:23;;;;;;;;;;;14.00;99.90;;;;;;5073329;28;1275;-50
2021/11/22 12:46:54;;;;;;;;;;;14.00;99.90;;;;;;5063889;28;1136;-50
2021/11/22 12:49:23;;;;;;;;;;;14.00;99.90;;;;;;5052096;28;1982;-51
2021/11/22 12:51:51;;;;;;;;;;;14.00;99.90;;;;;;5039439;28;861;-53
2021/11/22 12:54:17;;;;;;;;;;;14.00;99.90;;;;;;5052155;28;1006;-50
2021/11/22 12:56:44;;;;;;;;;;;14.00;99.90;;;;;;5057324;28;855;-50
2021/11/22 12:59:25;;;;;;;;;;;14.00;99.90;;;;;;5052395;28;782;-50
2021/11/22 13:01:52;;;;;;;;;;;14.00;99.90;;;;;;5054186;28;878;-54
2021/11/22 13:04:40;;;;;;;;;;;14.00;99.90;;;;;;5056913;28;919;-50
2021/11/22 13:07:27;;;;;;;;;;;14.00;99.90;;;;;;5057121;28;881;-51
2021/11/22 13:09:53;;;;;;;;;;;13.90;99.90;;;;;;5056756;28;1902;-54
2021/11/22 13:12:29;;;;;;;;;;;13.90;99.90;;;;;;5038916;28;906;-54
2021/11/22 13:15:03;;;;;;;;;;;13.90;99.90;;;;;;5057011;28;791;-50
2021/11/22 13:17:29;;;;;;;;;;;13.90;99.90;;;;;;5056336;28;976;-50
2021/11/22 13:19:56;;;;;;;;;;;13.80;99.90;;;;;;5056583;28;856;-50
2021/11/22 13:22:22;;;;;;;;;;;13.80;99.90;;;;;;5056695;28;857;-50
2021/11/22 13:24:49;;;;;;;;;;;13.90;99.90;;;;;;5062599;28;909;-52
2021/11/22 13:27:15;;;;;;;;;;;13.90;99.90;;;;;;5056528;28;897;-50
2021/11/22 13:29:42;;;;;;;;;;;13.80;99.90;;;;;;5056151;28;1906;-50
2021/11/22 13:32:09;;;;;;;;;;;13.80;99.90;;;;;;5057671;28;874;-52
2021/11/22 13:34:36;;;;;;;;;;;13.80;99.90;;;;;;5063042;28;850;-50
2021/11/22 13:37:06;;;;;;;;;;;13.80;99.90;;;;;;5063475;28;802;-52
2021/11/22 13:39:34;;;;;;;;;;;13.80;99.90;;;;;;5063417;28;965;-50
2021/11/22 13:42:02;;;;;;;;;;;13.80;99.90;;;;;;5062441;28;1018;-52
2021/11/22 13:44:30;;;;;;;;;;;13.80;99.90;;;;;;5035828;28;1252;-51
2021/11/22 13:46:57;;;;;;;;;;;13.80;99.90;;;;;;5062561;28;870;-53
2021/11/22 13:49:23;;;;;;;;;;;13.70;99.90;;;;;;5062017;28;1923;-53
2021/11/22 13:51:49;;;;;;;;;;;13.70;99.90;;;;;;5063352;28;834;-53
2021/11/22 13:54:17;;;;;;;;;;;13.70;99.90;;;;;;5062642;28;983;-55
2021/11/22 13:57:02;;;;;;;;;;;13.70;99.90;;;;;;5063095;28;869;-51
2021/11/22 13:59:38;;;;;;;;;;;13.70;99.90;;;;;;5061549;28;1206;-55
2021/11/22 14:02:07;;;;;;;;;;;13.60;99.90;;;;;;5041148;28;852;-51
2021/11/22 14:04:35;;;;;;;;;;;13.60;99.90;;;;;;5040835;28;1042;-51
2021/11/22 14:07:06;;;;;;;;;;;13.60;99.90;;;;;;5024903;28;829;-53
2021/11/22 14:09:32;;;;;;;;;;;13.60;99.90;;;;;;5041197;28;1914;-53
2021/11/22 14:11:58;;;;;;;;;;;13.60;99.90;;;;;;5039699;28;865;-51
2021/11/22 14:14:28;;;;;;;;;;;13.60;99.90;;;;;;5038335;28;1131;-55
2021/11/22 14:16:55;;;;;;;;;;;13.60;99.90;;;;;;5040065;28;1440;-55
2021/11/22 14:19:21;;;;;;;;;;;13.60;99.90;;;;;;5039074;28;822;-51
2021/11/22 14:21:48;;;;;;;;;;;13.60;99.90;;;;;;5021790;28;1197;-51
2021/11/22 14:24:17;;;;;;;;;;;13.60;99.90;;;;;;5038636;28;910;-53
2021/11/22 14:26:47;;;;;;;;;;;13.60;99.90;;;;;;5038962;28;1058;-51
2021/11/22 14:29:23;;;;;;;;;;;13.50;99.90;;;;;;5039059;28;827;-55
2021/11/22 14:31:53;;;;;;;;;;;13.50;99.90;;;;;;5030639;28;1902;-53
2021/11/22 14:34:21;;;;;;;;;;;13.50;99.90;;;;;;5062799;28;889;-51
2021/11/22 14:36:48;;;;;;;;;;;13.50;99.90;;;;;;5062177;28;874;-53
2021/11/22 14:39:15;;;;;;;;;;;13.50;99.90;;;;;;5062940;28;810;-53
2021/11/22 14:41:45;;;;;;;;;;;13.50;99.90;;;;;;5062708;28;797;-53
2021/11/22 14:44:13;;;;;;;;;;;13.50;99.90;;;;;;5059793;28;1118;-51